Overview Statistics Trail Chart Weather Telemetry Raw packets
 

This is the latest recevied weather packets stored in our database for station/object 9M4GEK-3. If no packets are shown the sender has not sent any weather packets the latest 10 day(s).

<< 5 6 7 8 9 10 11 >>
Time Temp. Humidity Pressure Rain* Wind** Luminosity Snow
1788478363 26.67° C 67% 1011.6 hPa - - - -
1788478229 28.33° C 69% 1010.2 hPa - - - -
1788477463 26.67° C 69% 1011.3 hPa - - - -
1788476563 26.67° C 69% 1011.2 hPa - - - -
1788476187 28.33° C 69% 1010.3 hPa - - - -
1788475662 26.11° C 70% 1011.1 hPa - - - -
1788475158 28.33° C 69% 1010.6 hPa - - - -
1788474762 26.11° C 71% 1011.2 hPa - - - -
1788474496 28.33° C 68% 1010.8 hPa - - - -
1788473950 28.33° C 68% 1010.8 hPa - - - -
1788473862 25.56° C 72% 1011.2 hPa - - - -
1788473427 28.33° C 67% 1011 hPa - - - -
1788472961 26.11° C 72% 1011.4 hPa - - - -
1788472781 28.89° C 66% 1011.4 hPa - - - -
1788472086 28.89° C 66% 1011.5 hPa - - - -
1788472062 27.22° C 71% 1011.2 hPa - - - -
1788471243 28.89° C 65% 1011.7 hPa - - - -
1788471162 27.22° C 71% 1010.3 hPa - - - -
1788470731 28.89° C 65% 1011.7 hPa - - - -
1788470534 28.89° C 65% 1011.6 hPa - - - -
1788470318 28.89° C 65% 1011.4 hPa - - - -
1788470261 27.78° C 70% 1010 hPa - - - -
1788470248 27.22° C 71% 1010 hPa - - - -
1788470118 28.89° C 64% 1011.2 hPa - - - -
1788469806 28.89° C 63% 1010.8 hPa - - - -

* Rain since midnight (hover to see other rain measurements)
** Current wind speed in m/s (hover to see current wind gust speed)